sensor_id;sensor_type;location;lat;lon;timestamp;pressure;altitude;pressure_sealevel;temperature;humidity
7182;BME280;3632;42.724;23.298;2022-08-16T00:00:58;94939.19;;;21.65;84.13
7182;BME280;3632;42.724;23.298;2022-08-16T00:03:25;94934.63;;;21.67;84.41
7182;BME280;3632;42.724;23.298;2022-08-16T00:05:52;94916.97;;;21.29;84.53
7182;BME280;3632;42.724;23.298;2022-08-16T00:08:19;94943.97;;;21.61;85.00
7182;BME280;3632;42.724;23.298;2022-08-16T00:10:46;94940.41;;;21.69;84.66
7182;BME280;3632;42.724;23.298;2022-08-16T00:13:14;94949.78;;;21.63;84.68
7182;BME280;3632;42.724;23.298;2022-08-16T00:15:42;94934.22;;;21.63;84.59
7182;BME280;3632;42.724;23.298;2022-08-16T00:18:10;94930.22;;;21.61;84.50
7182;BME280;3632;42.724;23.298;2022-08-16T00:20:40;94938.16;;;21.53;84.56
7182;BME280;3632;42.724;23.298;2022-08-16T00:23:07;94940.75;;;21.46;85.30
7182;BME280;3632;42.724;23.298;2022-08-16T00:25:34;94938.13;;;21.39;85.99
7182;BME280;3632;42.724;23.298;2022-08-16T00:28:01;94937.53;;;21.37;86.27
7182;BME280;3632;42.724;23.298;2022-08-16T00:30:30;94939.34;;;21.43;86.01
7182;BME280;3632;42.724;23.298;2022-08-16T00:32:59;94941.72;;;21.38;86.02
7182;BME280;3632;42.724;23.298;2022-08-16T00:35:30;94943.09;;;21.34;86.04
7182;BME280;3632;42.724;23.298;2022-08-16T00:37:57;94944.69;;;21.29;86.43
7182;BME280;3632;42.724;23.298;2022-08-16T00:40:33;94953.44;;;21.21;86.69
7182;BME280;3632;42.724;23.298;2022-08-16T00:43:03;94954.44;;;21.27;86.63
7182;BME280;3632;42.724;23.298;2022-08-16T00:45:37;94950.28;;;21.32;86.33
7182;BME280;3632;42.724;23.298;2022-08-16T00:48:07;94953.19;;;21.16;86.29
7182;BME280;3632;42.724;23.298;2022-08-16T00:50:37;94963.59;;;21.23;86.72
7182;BME280;3632;42.724;23.298;2022-08-16T00:53:05;94960.19;;;21.16;86.54
7182;BME280;3632;42.724;23.298;2022-08-16T00:55:34;94962.78;;;21.22;86.93
7182;BME280;3632;42.724;23.298;2022-08-16T00:58:02;94970.38;;;21.24;86.93
7182;BME280;3632;42.724;23.298;2022-08-16T01:00:33;94988.69;;;21.22;87.06
7182;BME280;3632;42.724;23.298;2022-08-16T01:03:06;94962.03;;;21.35;86.51
7182;BME280;3632;42.724;23.298;2022-08-16T01:05:34;94979.59;;;21.39;85.55
7182;BME280;3632;42.724;23.298;2022-08-16T01:08:02;94977.63;;;21.41;85.16
7182;BME280;3632;42.724;23.298;2022-08-16T01:10:30;94986.63;;;21.46;85.06
7182;BME280;3632;42.724;23.298;2022-08-16T01:13:02;94980.84;;;21.50;85.05
7182;BME280;3632;42.724;23.298;2022-08-16T01:15:29;94979.25;;;21.56;84.38
7182;BME280;3632;42.724;23.298;2022-08-16T01:17:59;94956.84;;;21.28;84.78
7182;BME280;3632;42.724;23.298;2022-08-16T01:20:28;94981.66;;;21.51;84.89
7182;BME280;3632;42.724;23.298;2022-08-16T01:23:02;94982.81;;;21.41;84.49
7182;BME280;3632;42.724;23.298;2022-08-16T01:25:37;94991.63;;;21.54;84.93
7182;BME280;3632;42.724;23.298;2022-08-16T01:28:10;94984.63;;;21.48;84.61
7182;BME280;3632;42.724;23.298;2022-08-16T01:30:40;94981.63;;;21.44;84.96
7182;BME280;3632;42.724;23.298;2022-08-16T01:33:08;94980.06;;;21.50;84.97
7182;BME280;3632;42.724;23.298;2022-08-16T01:35:38;94993.59;;;21.38;85.37
7182;BME280;3632;42.724;23.298;2022-08-16T01:38:15;94986.78;;;21.37;85.42
7182;BME280;3632;42.724;23.298;2022-08-16T01:40:45;94978.63;;;21.40;84.95
7182;BME280;3632;42.724;23.298;2022-08-16T01:43:11;94991.34;;;21.35;85.09
7182;BME280;3632;42.724;23.298;2022-08-16T01:45:39;94990.28;;;21.17;85.63
7182;BME280;3632;42.724;23.298;2022-08-16T01:48:06;94995.56;;;21.36;85.26
7182;BME280;3632;42.724;23.298;2022-08-16T01:50:34;94993.19;;;21.41;84.55
7182;BME280;3632;42.724;23.298;2022-08-16T01:53:01;94977.81;;;21.33;84.27
7182;BME280;3632;42.724;23.298;2022-08-16T01:55:28;95000.63;;;21.51;84.10
7182;BME280;3632;42.724;23.298;2022-08-16T01:57:56;94997.63;;;21.54;83.85
7182;BME280;3632;42.724;23.298;2022-08-16T02:00:25;95008.22;;;21.59;83.50
7182;BME280;3632;42.724;23.298;2022-08-16T02:02:52;95014.63;;;21.63;83.10
7182;BME280;3632;42.724;23.298;2022-08-16T02:05:19;94959.84;;;21.32;83.36
7182;BME280;3632;42.724;23.298;2022-08-16T02:07:46;95021.22;;;21.66;83.35
7182;BME280;3632;42.724;23.298;2022-08-16T02:10:13;95036.00;;;21.72;83.52
7182;BME280;3632;42.724;23.298;2022-08-16T02:12:41;95035.84;;;21.80;83.17
7182;BME280;3632;42.724;23.298;2022-08-16T02:15:10;95034.00;;;21.74;82.78
7182;BME280;3632;42.724;23.298;2022-08-16T02:17:37;95046.16;;;21.73;81.75
7182;BME280;3632;42.724;23.298;2022-08-16T02:20:05;95046.00;;;21.75;81.33
7182;BME280;3632;42.724;23.298;2022-08-16T02:22:32;95050.94;;;21.70;81.23
7182;BME280;3632;42.724;23.298;2022-08-16T02:25:00;95048.75;;;21.67;81.04
7182;BME280;3632;42.724;23.298;2022-08-16T02:27:27;95049.50;;;21.61;81.63
7182;BME280;3632;42.724;23.298;2022-08-16T02:29:54;94991.72;;;21.26;82.24
7182;BME280;3632;42.724;23.298;2022-08-16T02:32:23;95054.69;;;21.61;85.15
7182;BME280;3632;42.724;23.298;2022-08-16T02:34:50;95053.88;;;21.54;86.81
7182;BME280;3632;42.724;23.298;2022-08-16T02:37:16;95052.28;;;21.53;87.70
7182;BME280;3632;42.724;23.298;2022-08-16T02:39:43;95044.41;;;21.33;89.32
7182;BME280;3632;42.724;23.298;2022-08-16T02:42:10;95048.22;;;21.37;90.89
7182;BME280;3632;42.724;23.298;2022-08-16T02:44:37;95039.41;;;21.31;92.03
7182;BME280;3632;42.724;23.298;2022-08-16T02:47:03;95037.63;;;21.32;92.80
7182;BME280;3632;42.724;23.298;2022-08-16T02:49:32;95039.81;;;21.35;93.12
7182;BME280;3632;42.724;23.298;2022-08-16T02:51:58;95036.28;;;21.42;93.00
7182;BME280;3632;42.724;23.298;2022-08-16T02:54:25;95047.06;;;21.46;92.79
7182;BME280;3632;42.724;23.298;2022-08-16T02:56:52;95040.50;;;21.50;93.16
7182;BME280;3632;42.724;23.298;2022-08-16T02:59:18;95054.84;;;21.46;94.48
7182;BME280;3632;42.724;23.298;2022-08-16T03:01:45;95053.41;;;21.43;94.83
7182;BME280;3632;42.724;23.298;2022-08-16T03:04:12;95038.97;;;21.21;96.29
7182;BME280;3632;42.724;23.298;2022-08-16T03:06:40;95028.09;;;21.11;96.80
7182;BME280;3632;42.724;23.298;2022-08-16T03:09:07;95032.97;;;21.21;96.70
7182;BME280;3632;42.724;23.298;2022-08-16T03:11:34;95003.16;;;21.10;95.97
7182;BME280;3632;42.724;23.298;2022-08-16T03:14:01;95034.25;;;21.38;94.18
7182;BME280;3632;42.724;23.298;2022-08-16T03:16:27;95018.16;;;21.49;92.43
7182;BME280;3632;42.724;23.298;2022-08-16T03:18:54;95000.41;;;21.46;92.79
7182;BME280;3632;42.724;23.298;2022-08-16T03:21:21;95015.16;;;21.46;93.51
7182;BME280;3632;42.724;23.298;2022-08-16T03:23:49;95008.69;;;21.28;93.47
7182;BME280;3632;42.724;23.298;2022-08-16T03:26:16;95011.91;;;21.37;93.69
7182;BME280;3632;42.724;23.298;2022-08-16T03:28:43;95007.75;;;21.42;92.66
7182;BME280;3632;42.724;23.298;2022-08-16T03:31:10;95006.75;;;21.43;93.13
7182;BME280;3632;42.724;23.298;2022-08-16T03:33:37;94989.97;;;21.33;92.70
7182;BME280;3632;42.724;23.298;2022-08-16T03:36:04;95017.50;;;21.40;93.82
7182;BME280;3632;42.724;23.298;2022-08-16T03:38:32;95016.31;;;21.43;94.18
7182;BME280;3632;42.724;23.298;2022-08-16T03:41:02;95048.16;;;20.96;93.94
7182;BME280;3632;42.724;23.298;2022-08-16T03:43:29;95015.34;;;21.44;94.42
7182;BME280;3632;42.724;23.298;2022-08-16T03:45:57;95013.31;;;21.39;94.93
7182;BME280;3632;42.724;23.298;2022-08-16T03:48:28;95010.88;;;21.31;94.17
7182;BME280;3632;42.724;23.298;2022-08-16T03:50:57;95016.53;;;21.48;94.45
7182;BME280;3632;42.724;23.298;2022-08-16T03:53:24;95023.69;;;21.39;94.52
7182;BME280;3632;42.724;23.298;2022-08-16T03:55:51;95020.88;;;21.34;97.36
7182;BME280;3632;42.724;23.298;2022-08-16T03:58:19;95025.25;;;21.00;99.57
7182;BME280;3632;42.724;23.298;2022-08-16T04:00:46;94984.41;;;20.74;100.00
7182;BME280;3632;42.724;23.298;2022-08-16T04:03:14;95026.56;;;21.17;100.00
7182;BME280;3632;42.724;23.298;2022-08-16T04:05:43;95025.78;;;21.16;100.00
7182;BME280;3632;42.724;23.298;2022-08-16T04:08:12;95024.56;;;21.12;100.00
7182;BME280;3632;42.724;23.298;2022-08-16T04:10:39;95023.31;;;21.08;100.00
7182;BME280;3632;42.724;23.298;2022-08-16T04:13:06;95018.72;;;21.10;100.00
7182;BME280;3632;42.724;23.298;2022-08-16T04:15:34;95016.28;;;21.02;100.00
7182;BME280;3632;42.724;23.298;2022-08-16T04:18:03;95011.34;;;20.79;100.00
7182;BME280;3632;42.724;23.298;2022-08-16T04:20:30;95012.66;;;20.96;100.00
7182;BME280;3632;42.724;23.298;2022-08-16T04:22:57;95016.00;;;20.90;100.00
7182;BME280;3632;42.724;23.298;2022-08-16T04:25:25;95013.97;;;20.86;100.00
7182;BME280;3632;42.724;23.298;2022-08-16T04:27:52;95010.41;;;20.87;99.98
7182;BME280;3632;42.724;23.298;2022-08-16T04:30:19;95015.53;;;20.80;99.37
7182;BME280;3632;42.724;23.298;2022-08-16T04:32:48;95024.81;;;20.68;99.16
7182;BME280;3632;42.724;23.298;2022-08-16T04:35:18;95032.41;;;20.70;99.54
7182;BME280;3632;42.724;23.298;2022-08-16T04:37:46;95016.47;;;20.45;100.00
7182;BME280;3632;42.724;23.298;2022-08-16T04:40:14;95023.00;;;20.41;100.00
7182;BME280;3632;42.724;23.298;2022-08-16T04:42:41;95036.38;;;20.44;100.00
7182;BME280;3632;42.724;23.298;2022-08-16T04:45:11;95033.13;;;20.36;100.00
7182;BME280;3632;42.724;23.298;2022-08-16T04:47:40;95034.13;;;20.41;100.00
7182;BME280;3632;42.724;23.298;2022-08-16T04:50:11;95024.16;;;20.38;100.00
7182;BME280;3632;42.724;23.298;2022-08-16T04:52:38;94960.50;;;20.01;100.00
7182;BME280;3632;42.724;23.298;2022-08-16T04:55:11;95023.69;;;20.49;100.00
7182;BME280;3632;42.724;23.298;2022-08-16T04:57:39;95028.19;;;20.41;100.00
7182;BME280;3632;42.724;23.298;2022-08-16T05:00:08;95026.84;;;20.45;100.00
7182;BME280;3632;42.724;23.298;2022-08-16T05:02:38;95023.13;;;20.33;100.00
7182;BME280;3632;42.724;23.298;2022-08-16T05:05:05;95036.72;;;20.41;100.00
7182;BME280;3632;42.724;23.298;2022-08-16T05:07:34;95006.16;;;20.09;100.00
7182;BME280;3632;42.724;23.298;2022-08-16T05:10:02;95038.81;;;20.10;100.00
7182;BME280;3632;42.724;23.298;2022-08-16T05:12:29;95035.59;;;20.08;100.00
7182;BME280;3632;42.724;23.298;2022-08-16T05:14:56;95041.41;;;20.10;100.00
7182;BME280;3632;42.724;23.298;2022-08-16T05:17:23;95010.34;;;20.10;100.00
7182;BME280;3632;42.724;23.298;2022-08-16T05:19:50;95030.69;;;20.34;100.00
7182;BME280;3632;42.724;23.298;2022-08-16T05:22:17;94979.44;;;20.02;100.00
7182;BME280;3632;42.724;23.298;2022-08-16T05:24:45;95040.44;;;20.54;100.00
7182;BME280;3632;42.724;23.298;2022-08-16T05:27:11;95044.47;;;20.63;100.00
7182;BME280;3632;42.724;23.298;2022-08-16T05:29:38;95025.00;;;20.45;100.00
7182;BME280;3632;42.724;23.298;2022-08-16T05:32:05;95060.94;;;20.76;100.00
7182;BME280;3632;42.724;23.298;2022-08-16T05:34:32;95054.03;;;20.83;99.67
7182;BME280;3632;42.724;23.298;2022-08-16T05:36:59;95051.22;;;20.85;97.71
7182;BME280;3632;42.724;23.298;2022-08-16T05:39:26;95048.84;;;20.83;96.90
7182;BME280;3632;42.724;23.298;2022-08-16T05:41:55;95038.94;;;20.93;97.16
7182;BME280;3632;42.724;23.298;2022-08-16T05:44:22;95042.00;;;21.04;96.95
7182;BME280;3632;42.724;23.298;2022-08-16T05:46:50;95041.06;;;21.11;95.82
7182;BME280;3632;42.724;23.298;2022-08-16T05:49:17;95043.34;;;21.21;95.15
7182;BME280;3632;42.724;23.298;2022-08-16T05:51:45;95029.59;;;21.20;94.80
7182;BME280;3632;42.724;23.298;2022-08-16T05:54:13;95037.06;;;21.43;93.73
7182;BME280;3632;42.724;23.298;2022-08-16T05:56:42;95037.69;;;21.45;93.95
7182;BME280;3632;42.724;23.298;2022-08-16T05:59:12;95029.72;;;21.47;94.20
7182;BME280;3632;42.724;23.298;2022-08-16T06:01:40;95028.72;;;21.48;94.60
7182;BME280;3632;42.724;23.298;2022-08-16T06:04:10;95036.31;;;21.49;94.47
7182;BME280;3632;42.724;23.298;2022-08-16T06:06:37;95034.13;;;21.53;94.19
7182;BME280;3632;42.724;23.298;2022-08-16T06:09:03;95018.91;;;21.43;93.41
7182;BME280;3632;42.724;23.298;2022-08-16T06:11:30;95039.13;;;21.54;93.21
7182;BME280;3632;42.724;23.298;2022-08-16T06:13:57;95022.13;;;21.52;93.05
7182;BME280;3632;42.724;23.298;2022-08-16T06:16:25;94891.94;;;20.68;92.69
7182;BME280;3632;42.724;23.298;2022-08-16T06:18:52;95036.38;;;21.69;93.69
7182;BME280;3632;42.724;23.298;2022-08-16T06:21:19;94992.78;;;21.45;92.80
7182;BME280;3632;42.724;23.298;2022-08-16T06:23:45;95003.22;;;21.58;92.99
7182;BME280;3632;42.724;23.298;2022-08-16T06:26:12;95024.06;;;21.91;93.19
7182;BME280;3632;42.724;23.298;2022-08-16T06:28:39;95024.16;;;22.04;93.85
7182;BME280;3632;42.724;23.298;2022-08-16T06:31:08;94981.97;;;21.88;93.33
7182;BME280;3632;42.724;23.298;2022-08-16T06:33:36;95010.00;;;22.19;91.78
7182;BME280;3632;42.724;23.298;2022-08-16T06:36:03;95023.19;;;22.24;91.69
7182;BME280;3632;42.724;23.298;2022-08-16T06:38:33;95026.41;;;22.26;92.18
7182;BME280;3632;42.724;23.298;2022-08-16T06:41:02;95017.97;;;22.11;92.50
7182;BME280;3632;42.724;23.298;2022-08-16T06:43:29;95064.06;;;21.96;93.10
7182;BME280;3632;42.724;23.298;2022-08-16T06:45:56;95026.59;;;22.18;92.45
7182;BME280;3632;42.724;23.298;2022-08-16T06:48:23;95020.59;;;22.24;92.26
7182;BME280;3632;42.724;23.298;2022-08-16T06:50:51;95026.22;;;22.35;92.61
7182;BME280;3632;42.724;23.298;2022-08-16T06:53:18;95020.19;;;22.41;91.57
7182;BME280;3632;42.724;23.298;2022-08-16T06:55:46;95013.63;;;22.45;91.55
7182;BME280;3632;42.724;23.298;2022-08-16T06:58:12;95013.63;;;22.58;90.35
7182;BME280;3632;42.724;23.298;2022-08-16T07:00:39;95004.66;;;22.73;90.30
7182;BME280;3632;42.724;23.298;2022-08-16T07:03:06;94995.25;;;22.79;88.49
7182;BME280;3632;42.724;23.298;2022-08-16T07:05:34;94989.03;;;22.93;87.74
7182;BME280;3632;42.724;23.298;2022-08-16T07:08:02;94990.25;;;23.04;86.59
7182;BME280;3632;42.724;23.298;2022-08-16T07:10:29;94986.81;;;23.16;85.74
7182;BME280;3632;42.724;23.298;2022-08-16T07:12:56;94887.53;;;22.62;83.58
7182;BME280;3632;42.724;23.298;2022-08-16T07:15:23;94908.69;;;22.85;82.48
7182;BME280;3632;42.724;23.298;2022-08-16T07:17:50;94987.09;;;23.53;81.92
7182;BME280;3632;42.724;23.298;2022-08-16T07:20:17;94980.84;;;23.60;80.96
7182;BME280;3632;42.724;23.298;2022-08-16T07:22:47;94958.69;;;23.51;80.62
7182;BME280;3632;42.724;23.298;2022-08-16T07:25:15;94972.41;;;23.72;80.45
7182;BME280;3632;42.724;23.298;2022-08-16T07:27:42;94969.94;;;23.83;79.97
7182;BME280;3632;42.724;23.298;2022-08-16T07:30:11;94978.69;;;23.95;79.56
7182;BME280;3632;42.724;23.298;2022-08-16T07:32:38;94973.81;;;24.05;78.38
7182;BME280;3632;42.724;23.298;2022-08-16T07:35:06;94948.59;;;24.06;75.41
7182;BME280;3632;42.724;23.298;2022-08-16T07:37:33;94978.84;;;24.32;74.01
7182;BME280;3632;42.724;23.298;2022-08-16T07:40:00;94899.22;;;23.93;73.54
7182;BME280;3632;42.724;23.298;2022-08-16T07:42:28;94975.53;;;24.49;72.99
7182;BME280;3632;42.724;23.298;2022-08-16T07:44:55;94974.22;;;24.65;71.81
7182;BME280;3632;42.724;23.298;2022-08-16T07:47:22;94857.28;;;24.01;70.69
7182;BME280;3632;42.724;23.298;2022-08-16T07:49:49;94978.44;;;24.84;69.16
7182;BME280;3632;42.724;23.298;2022-08-16T07:52:16;94982.75;;;24.97;66.68
7182;BME280;3632;42.724;23.298;2022-08-16T07:54:42;94975.66;;;25.04;66.69
7182;BME280;3632;42.724;23.298;2022-08-16T07:57:09;94979.22;;;25.10;65.17
7182;BME280;3632;42.724;23.298;2022-08-16T07:59:38;94939.16;;;24.86;64.96
7182;BME280;3632;42.724;23.298;2022-08-16T08:02:05;94979.66;;;25.25;64.28
7182;BME280;3632;42.724;23.298;2022-08-16T08:04:32;94985.59;;;25.32;64.64
7182;BME280;3632;42.724;23.298;2022-08-16T08:06:58;94992.84;;;25.48;60.94
7182;BME280;3632;42.724;23.298;2022-08-16T08:09:25;94990.16;;;25.55;60.01
7182;BME280;3632;42.724;23.298;2022-08-16T08:11:52;94988.50;;;25.60;59.30
7182;BME280;3632;42.724;23.298;2022-08-16T08:14:19;94980.38;;;25.68;59.10
7182;BME280;3632;42.724;23.298;2022-08-16T08:16:47;94982.00;;;25.81;57.98
7182;BME280;3632;42.724;23.298;2022-08-16T08:19:14;94989.97;;;25.86;57.22
7182;BME280;3632;42.724;23.298;2022-08-16T08:21:42;94984.69;;;25.92;58.41
7182;BME280;3632;42.724;23.298;2022-08-16T08:24:10;94984.38;;;26.01;57.67
7182;BME280;3632;42.724;23.298;2022-08-16T08:26:40;94966.00;;;26.07;57.93
7182;BME280;3632;42.724;23.298;2022-08-16T08:29:07;94975.28;;;26.03;57.69
7182;BME280;3632;42.724;23.298;2022-08-16T08:31:33;94978.69;;;26.22;57.49
7182;BME280;3632;42.724;23.298;2022-08-16T08:34:02;94983.44;;;26.25;57.11
7182;BME280;3632;42.724;23.298;2022-08-16T08:36:33;94973.94;;;26.30;56.90
7182;BME280;3632;42.724;23.298;2022-08-16T08:39:01;94982.22;;;26.39;56.15
7182;BME280;3632;42.724;23.298;2022-08-16T08:41:28;94963.03;;;26.45;55.92
7182;BME280;3632;42.724;23.298;2022-08-16T08:43:55;94975.00;;;26.64;55.08
7182;BME280;3632;42.724;23.298;2022-08-16T08:46:24;94968.84;;;26.70;55.04
7182;BME280;3632;42.724;23.298;2022-08-16T08:48:52;94978.28;;;26.83;55.46
7182;BME280;3632;42.724;23.298;2022-08-16T08:51:21;94973.19;;;27.00;55.84
7182;BME280;3632;42.724;23.298;2022-08-16T08:53:50;94973.75;;;27.13;54.97
7182;BME280;3632;42.724;23.298;2022-08-16T08:56:17;94978.97;;;27.25;53.77
7182;BME280;3632;42.724;23.298;2022-08-16T08:58:44;94971.78;;;27.32;50.63
7182;BME280;3632;42.724;23.298;2022-08-16T09:01:11;94965.97;;;27.30;51.05
7182;BME280;3632;42.724;23.298;2022-08-16T09:03:38;94929.97;;;27.09;50.99
7182;BME280;3632;42.724;23.298;2022-08-16T09:06:05;94960.72;;;27.42;51.59
7182;BME280;3632;42.724;23.298;2022-08-16T09:08:34;94967.78;;;27.53;50.51
7182;BME280;3632;42.724;23.298;2022-08-16T09:11:01;94917.19;;;27.24;50.68
7182;BME280;3632;42.724;23.298;2022-08-16T09:13:28;94968.66;;;27.70;49.68
7182;BME280;3632;42.724;23.298;2022-08-16T09:15:57;94927.63;;;27.47;49.51
7182;BME280;3632;42.724;23.298;2022-08-16T09:18:26;94979.28;;;27.80;50.26
7182;BME280;3632;42.724;23.298;2022-08-16T09:20:54;94976.72;;;27.97;50.10
7182;BME280;3632;42.724;23.298;2022-08-16T09:23:21;94984.56;;;27.97;49.57
7182;BME280;3632;42.724;23.298;2022-08-16T09:25:50;94982.03;;;28.13;48.49
7182;BME280;3632;42.724;23.298;2022-08-16T09:28:17;94956.75;;;28.07;47.81
7182;BME280;3632;42.724;23.298;2022-08-16T09:30:44;94961.94;;;28.19;48.27
7182;BME280;3632;42.724;23.298;2022-08-16T09:33:14;94966.72;;;28.22;48.48
7182;BME280;3632;42.724;23.298;2022-08-16T09:35:43;94972.69;;;28.34;48.66
7182;BME280;3632;42.724;23.298;2022-08-16T09:38:11;94969.19;;;28.45;48.19
7182;BME280;3632;42.724;23.298;2022-08-16T09:40:39;94970.94;;;28.56;48.21
7182;BME280;3632;42.724;23.298;2022-08-16T09:43:07;94972.13;;;28.66;48.56
7182;BME280;3632;42.724;23.298;2022-08-16T09:45:34;94967.56;;;28.73;47.19
7182;BME280;3632;42.724;23.298;2022-08-16T09:48:05;94970.59;;;28.81;47.67
7182;BME280;3632;42.724;23.298;2022-08-16T09:50:32;94973.91;;;28.93;48.67
7182;BME280;3632;42.724;23.298;2022-08-16T09:53:00;94973.91;;;28.93;47.27
7182;BME280;3632;42.724;23.298;2022-08-16T09:55:27;94972.13;;;28.99;46.94
7182;BME280;3632;42.724;23.298;2022-08-16T09:57:54;94961.59;;;29.16;45.97
7182;BME280;3632;42.724;23.298;2022-08-16T10:00:23;94968.31;;;29.28;47.03
7182;BME280;3632;42.724;23.298;2022-08-16T10:02:51;94939.84;;;29.37;46.11
7182;BME280;3632;42.724;23.298;2022-08-16T10:05:19;94963.03;;;29.67;45.40
7182;BME280;3632;42.724;23.298;2022-08-16T10:07:47;94965.47;;;29.73;44.74
7182;BME280;3632;42.724;23.298;2022-08-16T10:10:17;94962.78;;;29.68;44.75
7182;BME280;3632;42.724;23.298;2022-08-16T10:12:44;94975.50;;;29.55;45.16
7182;BME280;3632;42.724;23.298;2022-08-16T10:15:30;94973.53;;;29.23;45.34
7182;BME280;3632;42.724;23.298;2022-08-16T10:17:58;94964.31;;;29.04;45.81
7182;BME280;3632;42.724;23.298;2022-08-16T10:20:26;94956.41;;;28.82;46.23
7182;BME280;3632;42.724;23.298;2022-08-16T10:22:53;94957.81;;;29.07;45.72
7182;BME280;3632;42.724;23.298;2022-08-16T10:25:20;94907.88;;;29.01;44.81
7182;BME280;3632;42.724;23.298;2022-08-16T10:27:47;94953.75;;;29.59;44.49
7182;BME280;3632;42.724;23.298;2022-08-16T10:30:17;94953.63;;;29.71;45.21
7182;BME280;3632;42.724;23.298;2022-08-16T10:32:45;94960.75;;;29.75;44.74
7182;BME280;3632;42.724;23.298;2022-08-16T10:35:12;94952.56;;;29.93;43.85
7182;BME280;3632;42.724;23.298;2022-08-16T10:37:39;94961.75;;;29.69;45.07
7182;BME280;3632;42.724;23.298;2022-08-16T10:40:08;94959.16;;;29.47;44.63
7182;BME280;3632;42.724;23.298;2022-08-16T10:42:35;94962.63;;;29.31;44.65
7182;BME280;3632;42.724;23.298;2022-08-16T10:45:02;94971.31;;;29.15;45.34
7182;BME280;3632;42.724;23.298;2022-08-16T10:47:29;94965.34;;;29.03;46.33
7182;BME280;3632;42.724;23.298;2022-08-16T10:49:57;94960.06;;;28.98;46.69
7182;BME280;3632;42.724;23.298;2022-08-16T10:52:25;94973.03;;;29.26;45.96
7182;BME280;3632;42.724;23.298;2022-08-16T10:54:51;94962.56;;;29.48;43.81
7182;BME280;3632;42.724;23.298;2022-08-16T10:57:18;94956.13;;;29.82;42.72
7182;BME280;3632;42.724;23.298;2022-08-16T10:59:45;94957.53;;;30.17;43.05
7182;BME280;3632;42.724;23.298;2022-08-16T11:02:12;94952.59;;;30.52;43.11
7182;BME280;3632;42.724;23.298;2022-08-16T11:04:39;94945.72;;;30.83;42.72
7182;BME280;3632;42.724;23.298;2022-08-16T11:07:09;94891.75;;;30.80;41.98
7182;BME280;3632;42.724;23.298;2022-08-16T11:09:36;94942.81;;;31.26;41.54
7182;BME280;3632;42.724;23.298;2022-08-16T11:12:03;94945.78;;;31.45;39.96
7182;BME280;3632;42.724;23.298;2022-08-16T11:14:30;94942.56;;;31.23;39.66
7182;BME280;3632;42.724;23.298;2022-08-16T11:16:58;94941.00;;;30.90;40.56
7182;BME280;3632;42.724;23.298;2022-08-16T11:19:26;94944.56;;;30.69;40.70
7182;BME280;3632;42.724;23.298;2022-08-16T11:21:54;94938.97;;;30.55;40.49
7182;BME280;3632;42.724;23.298;2022-08-16T11:24:23;94939.34;;;30.42;40.72
7182;BME280;3632;42.724;23.298;2022-08-16T11:26:49;94943.69;;;30.26;41.31
7182;BME280;3632;42.724;23.298;2022-08-16T11:29:17;94949.56;;;30.07;42.66
7182;BME280;3632;42.724;23.298;2022-08-16T11:31:44;94959.22;;;29.79;44.60
7182;BME280;3632;42.724;23.298;2022-08-16T11:34:12;94970.75;;;29.52;48.42
7182;BME280;3632;42.724;23.298;2022-08-16T11:36:39;94957.06;;;29.11;49.00
7182;BME280;3632;42.724;23.298;2022-08-16T11:39:06;94949.53;;;28.76;50.99
7182;BME280;3632;42.724;23.298;2022-08-16T11:41:34;94947.28;;;28.51;50.23
7182;BME280;3632;42.724;23.298;2022-08-16T11:44:03;94908.53;;;27.92;51.92
7182;BME280;3632;42.724;23.298;2022-08-16T11:46:30;94955.69;;;27.92;54.10
7182;BME280;3632;42.724;23.298;2022-08-16T11:48:59;94955.16;;;27.38;55.01
7182;BME280;3632;42.724;23.298;2022-08-16T11:51:25;94937.66;;;27.27;53.39
7182;BME280;3632;42.724;23.298;2022-08-16T11:53:52;94934.38;;;27.20;54.66
7182;BME280;3632;42.724;23.298;2022-08-16T11:56:20;94928.13;;;27.09;51.53
7182;BME280;3632;42.724;23.298;2022-08-16T11:58:48;94931.84;;;27.25;53.60
7182;BME280;3632;42.724;23.298;2022-08-16T12:01:15;94927.66;;;27.64;57.82
7182;BME280;3632;42.724;23.298;2022-08-16T12:03:42;94924.53;;;28.40;61.21
7182;BME280;3632;42.724;23.298;2022-08-16T12:06:11;94915.34;;;29.10;56.70
7182;BME280;3632;42.724;23.298;2022-08-16T12:08:41;94916.53;;;29.89;57.59
7182;BME280;3632;42.724;23.298;2022-08-16T12:11:08;94901.66;;;30.31;54.10
7182;BME280;3632;42.724;23.298;2022-08-16T12:13:36;94917.09;;;30.23;53.17
7182;BME280;3632;42.724;23.298;2022-08-16T12:16:05;94923.00;;;29.81;52.39
7182;BME280;3632;42.724;23.298;2022-08-16T12:18:33;94918.38;;;29.67;52.71
7182;BME280;3632;42.724;23.298;2022-08-16T12:21:00;94922.38;;;29.47;53.49
7182;BME280;3632;42.724;23.298;2022-08-16T12:23:28;94909.56;;;29.29;54.60
7182;BME280;3632;42.724;23.298;2022-08-16T12:25:55;94911.78;;;29.21;55.49
7182;BME280;3632;42.724;23.298;2022-08-16T12:28:22;94911.97;;;28.92;54.80
7182;BME280;3632;42.724;23.298;2022-08-16T12:30:49;94913.34;;;28.78;54.85
7182;BME280;3632;42.724;23.298;2022-08-16T12:33:18;94912.88;;;28.81;55.56
7182;BME280;3632;42.724;23.298;2022-08-16T12:35:47;94897.06;;;28.76;59.52
7182;BME280;3632;42.724;23.298;2022-08-16T12:38:14;94903.19;;;29.25;59.90
7182;BME280;3632;42.724;23.298;2022-08-16T12:40:47;94890.00;;;29.90;57.85
7182;BME280;3632;42.724;23.298;2022-08-16T12:43:16;94882.19;;;30.64;55.30
7182;BME280;3632;42.724;23.298;2022-08-16T12:45:49;94879.63;;;31.26;52.93
7182;BME280;3632;42.724;23.298;2022-08-16T12:48:19;94874.50;;;31.87;50.12
7182;BME280;3632;42.724;23.298;2022-08-16T12:51:07;94870.63;;;32.20;41.93
7182;BME280;3632;42.724;23.298;2022-08-16T12:53:34;94874.81;;;32.67;42.06
7182;BME280;3632;42.724;23.298;2022-08-16T12:56:04;94878.66;;;33.04;42.12
7182;BME280;3632;42.724;23.298;2022-08-16T12:58:32;94875.41;;;33.28;39.05
7182;BME280;3632;42.724;23.298;2022-08-16T13:00:59;94869.31;;;33.37;39.04
7182;BME280;3632;42.724;23.298;2022-08-16T13:03:28;94873.16;;;33.65;36.42
7182;BME280;3632;42.724;23.298;2022-08-16T13:05:55;94858.91;;;33.95;37.36
7182;BME280;3632;42.724;23.298;2022-08-16T13:08:22;94852.97;;;34.18;36.38
7182;BME280;3632;42.724;23.298;2022-08-16T13:10:49;94859.69;;;34.01;33.11
7182;BME280;3632;42.724;23.298;2022-08-16T13:13:20;94854.00;;;33.83;31.30